AEE122 LPPR-LGAV
Flight info
| Callsign | AEE122 |
|---|---|
| Flight time | 3h 36m |
| Altitude | 18000 |
| Route | BELD9E BELDU A43 ADORO/N0454F340 L155 ZMR N976 DGO N725 ORKUM M603 ELSAG/N0398F180 M603 ORVEX/N0406F190 M601 NERAR Q182 CDC L869 CRN M601 RUTOM N604 ARA B34 NEMES NEME1R |
| Aircraft | A320/M-SDE3FGHIRWY/LB1 |
Departure
| Time | 2026-05-07 16:49 |
|---|---|
| Airport | Francisco de Sá Carneiro Airport (LPPR) |
Arrival
| Time | 2026-05-07 20:26 |
|---|---|
| Airport | Athens Eleftherios Venizelos International Airport (LGAV) |
| Time | Latitude | Longitude | Altitude | Speed | Heading |
|---|---|---|---|---|---|
| 2026-05-07 16:10 | 41.23792 | -8.67365 | 235 ft | 0 kts | 48° |
| 2026-05-07 16:34 | 41.23783 | -8.67379 | 235 ft | 2 kts | 49° |
| 2026-05-07 16:34 | 41.23772 | -8.67396 | 235 ft | 2 kts | 68° |
| 2026-05-07 16:34 | 41.23769 | -8.67417 | 236 ft | 2 kts | 98° |
| 2026-05-07 16:35 | 41.23773 | -8.67438 | 239 ft | 2 kts | 120° |
| 2026-05-07 16:35 | 41.23782 | -8.67456 | 238 ft | 2 kts | 142° |
| 2026-05-07 16:35 | 41.23791 | -8.67464 | 239 ft | 1 kts | 160° |
| 2026-05-07 16:35 | 41.23794 | -8.67466 | 239 ft | 0 kts | 165° |
| 2026-05-07 16:41 | 41.23787 | -8.67465 | 235 ft | 4 kts | 171° |
| 2026-05-07 16:41 | 41.23740 | -8.67453 | 235 ft | 8 kts | 169° |
| 2026-05-07 16:41 | 41.23682 | -8.67437 | 235 ft | 9 kts | 168° |
| 2026-05-07 16:41 | 41.23618 | -8.67421 | 238 ft | 10 kts | 169° |
| 2026-05-07 16:42 | 41.23596 | -8.67415 | 235 ft | 0 kts | 169° |
| 2026-05-07 16:44 | 41.23595 | -8.67415 | 235 ft | 1 kts | 169° |
| 2026-05-07 16:44 | 41.23585 | -8.67412 | 235 ft | 3 kts | 169° |
| 2026-05-07 16:44 | 41.23545 | -8.67402 | 235 ft | 7 kts | 169° |
| 2026-05-07 16:45 | 41.23486 | -8.67386 | 235 ft | 11 kts | 169° |
| 2026-05-07 16:45 | 41.23412 | -8.67367 | 235 ft | 11 kts | 169° |
| 2026-05-07 16:45 | 41.23350 | -8.67377 | 236 ft | 9 kts | 217° |
| 2026-05-07 16:45 | 41.23330 | -8.67451 | 237 ft | 8 kts | 259° |
| 2026-05-07 16:46 | 41.23326 | -8.67477 | 236 ft | 1 kts | 258° |
| 2026-05-07 16:46 | 41.23324 | -8.67490 | 235 ft | 2 kts | 258° |
| 2026-05-07 16:46 | 41.23319 | -8.67524 | 235 ft | 7 kts | 258° |
| 2026-05-07 16:46 | 41.23308 | -8.67596 | 235 ft | 8 kts | 259° |
| 2026-05-07 16:47 | 41.23307 | -8.67608 | 235 ft | 0 kts | 259° |
| 2026-05-07 16:47 | 41.23306 | -8.67614 | 235 ft | 3 kts | 259° |
| 2026-05-07 16:47 | 41.23297 | -8.67675 | 235 ft | 9 kts | 261° |
| 2026-05-07 16:47 | 41.23329 | -8.67734 | 236 ft | 9 kts | 343° |
| 2026-05-07 16:48 | 41.23349 | -8.67740 | 236 ft | 0 kts | 348° |
| 2026-05-07 16:48 | 41.23370 | -8.67746 | 237 ft | 19 kts | 348° |
| 2026-05-07 16:48 | 41.23739 | -8.67843 | 234 ft | 86 kts | 348° |
| 2026-05-07 16:49 | 41.24508 | -8.68044 | 237 ft | 136 kts | 348° |
| 2026-05-07 16:49 | 41.25578 | -8.68313 | 276 ft | 172 kts | 348° |
| 2026-05-07 16:49 | 41.26728 | -8.68599 | 886 ft | 166 kts | 346° |
| 2026-05-07 16:49 | 41.27916 | -8.68890 | 1309 ft | 183 kts | 346° |
| 2026-05-07 16:50 | 41.29193 | -8.69200 | 1783 ft | 191 kts | 345° |
| 2026-05-07 16:50 | 41.30507 | -8.69560 | 2278 ft | 194 kts | 343° |
| 2026-05-07 16:50 | 41.31843 | -8.69957 | 2659 ft | 205 kts | 342° |
| 2026-05-07 16:50 | 41.33322 | -8.70371 | 2838 ft | 229 kts | 345° |
| 2026-05-07 16:51 | 41.34968 | -8.70815 | 3099 ft | 253 kts | 346° |
| 2026-05-07 16:51 | 41.36735 | -8.71281 | 3657 ft | 263 kts | 346° |
| 2026-05-07 16:51 | 41.38564 | -8.71749 | 4278 ft | 273 kts | 348° |
| 2026-05-07 16:51 | 41.40476 | -8.71613 | 4895 ft | 282 kts | 18° |
| 2026-05-07 16:52 | 41.42145 | -8.70252 | 5548 ft | 286 kts | 49° |
| 2026-05-07 16:52 | 41.43147 | -8.67997 | 6202 ft | 283 kts | 76° |
| 2026-05-07 16:52 | 41.43436 | -8.65432 | 6934 ft | 280 kts | 91° |
| 2026-05-07 16:52 | 41.43527 | -8.62826 | 7637 ft | 283 kts | 91° |
| 2026-05-07 16:53 | 41.43609 | -8.60222 | 8326 ft | 285 kts | 91° |
| 2026-05-07 16:53 | 41.43687 | -8.57564 | 9039 ft | 287 kts | 91° |
| 2026-05-07 16:53 | 41.43764 | -8.54893 | 9729 ft | 289 kts | 91° |
| 2026-05-07 16:53 | 41.43843 | -8.52186 | 10174 ft | 301 kts | 91° |
| 2026-05-07 16:54 | 41.43923 | -8.49306 | 10298 ft | 321 kts | 90° |
| 2026-05-07 16:54 | 41.44006 | -8.46244 | 10409 ft | 340 kts | 91° |
| 2026-05-07 16:54 | 41.44096 | -8.43015 | 10536 ft | 358 kts | 90° |
| 2026-05-07 16:54 | 41.44193 | -8.39615 | 10687 ft | 374 kts | 90° |
| 2026-05-07 16:55 | 41.44296 | -8.36122 | 11112 ft | 380 kts | 90° |
| 2026-05-07 16:55 | 41.44405 | -8.32580 | 11597 ft | 384 kts | 90° |
| 2026-05-07 16:55 | 41.44511 | -8.29008 | 12109 ft | 387 kts | 91° |
| 2026-05-07 16:55 | 41.44610 | -8.25431 | 12645 ft | 390 kts | 89° |
| 2026-05-07 16:56 | 41.44708 | -8.21777 | 13167 ft | 393 kts | 90° |
| 2026-05-07 16:56 | 41.44805 | -8.18123 | 13713 ft | 396 kts | 89° |
| 2026-05-07 16:56 | 41.45000 | -8.10723 | 14641 ft | 403 kts | 90° |
| 2026-05-07 16:57 | 41.45096 | -8.06971 | 15120 ft | 406 kts | 89° |
| 2026-05-07 16:57 | 41.45193 | -8.03198 | 15583 ft | 409 kts | 90° |
| 2026-05-07 16:57 | 41.45288 | -7.99389 | 16043 ft | 413 kts | 90° |
| 2026-05-07 16:57 | 41.45382 | -7.95550 | 16529 ft | 416 kts | 90° |
| 2026-05-07 16:58 | 41.45478 | -7.91680 | 16956 ft | 420 kts | 89° |
| 2026-05-07 16:58 | 41.45570 | -7.87778 | 17397 ft | 423 kts | 89° |
| 2026-05-07 16:58 | 41.45662 | -7.83844 | 17825 ft | 426 kts | 89° |
| 2026-05-07 16:58 | 41.45756 | -7.79884 | 18225 ft | 430 kts | 89° |
| 2026-05-07 16:59 | 41.45849 | -7.75882 | 18643 ft | 432 kts | 89° |
| 2026-05-07 16:59 | 41.45943 | -7.71860 | 18963 ft | 437 kts | 88° |
| 2026-05-07 16:59 | 41.46035 | -7.67801 | 19322 ft | 440 kts | 88° |
| 2026-05-07 16:59 | 41.46128 | -7.63713 | 19689 ft | 443 kts | 88° |
| 2026-05-07 17:00 | 41.46220 | -7.59589 | 19998 ft | 447 kts | 87° |
| 2026-05-07 17:00 | 41.46311 | -7.55447 | 20379 ft | 448 kts | 87° |
| 2026-05-07 17:00 | 41.46400 | -7.51274 | 20709 ft | 451 kts | 87° |
| 2026-05-07 17:00 | 41.46487 | -7.47089 | 21039 ft | 453 kts | 87° |
| 2026-05-07 17:01 | 41.46569 | -7.42881 | 21360 ft | 455 kts | 87° |
| 2026-05-07 17:01 | 41.46651 | -7.38650 | 21669 ft | 457 kts | 87° |
| 2026-05-07 17:01 | 41.46733 | -7.34451 | 21960 ft | 460 kts | 87° |
| 2026-05-07 17:01 | 41.46817 | -7.30131 | 22251 ft | 462 kts | 86° |
| 2026-05-07 17:02 | 41.46900 | -7.25835 | 22522 ft | 465 kts | 86° |
| 2026-05-07 17:02 | 41.46979 | -7.21533 | 22793 ft | 467 kts | 86° |
| 2026-05-07 17:02 | 41.47056 | -7.17175 | 23052 ft | 470 kts | 86° |
| 2026-05-07 17:02 | 41.47132 | -7.12816 | 23415 ft | 470 kts | 86° |
| 2026-05-07 17:03 | 41.47207 | -7.08461 | 23722 ft | 470 kts | 86° |
| 2026-05-07 17:03 | 41.47283 | -7.04103 | 24036 ft | 470 kts | 86° |
| 2026-05-07 17:03 | 41.47356 | -6.99794 | 24344 ft | 471 kts | 86° |
| 2026-05-07 17:03 | 41.47429 | -6.95425 | 24667 ft | 472 kts | 86° |
| 2026-05-07 17:04 | 41.47500 | -6.91048 | 24969 ft | 472 kts | 86° |
| 2026-05-07 17:04 | 41.47568 | -6.86661 | 25264 ft | 473 kts | 86° |
| 2026-05-07 17:04 | 41.47632 | -6.82274 | 25617 ft | 473 kts | 86° |
| 2026-05-07 17:04 | 41.47694 | -6.77893 | 25971 ft | 473 kts | 86° |
| 2026-05-07 17:05 | 41.47757 | -6.73501 | 26306 ft | 473 kts | 86° |
| 2026-05-07 17:05 | 41.47817 | -6.69111 | 26643 ft | 474 kts | 86° |
| 2026-05-07 17:05 | 41.47874 | -6.64713 | 26980 ft | 475 kts | 86° |
| 2026-05-07 17:05 | 41.47932 | -6.60317 | 27318 ft | 475 kts | 86° |
| 2026-05-07 17:06 | 41.47990 | -6.55912 | 27663 ft | 475 kts | 86° |
| 2026-05-07 17:06 | 41.48045 | -6.51496 | 27998 ft | 476 kts | 86° |
| 2026-05-07 17:06 | 41.48099 | -6.47080 | 28334 ft | 477 kts | 86° |
| 2026-05-07 17:06 | 41.48151 | -6.42655 | 28699 ft | 477 kts | 86° |
| 2026-05-07 17:07 | 41.48201 | -6.38234 | 29035 ft | 478 kts | 86° |
| 2026-05-07 17:07 | 41.48250 | -6.33804 | 29368 ft | 478 kts | 86° |
| 2026-05-07 17:07 | 41.48297 | -6.29362 | 29708 ft | 479 kts | 85° |
| 2026-05-07 17:07 | 41.48536 | -6.24951 | 29999 ft | 477 kts | 80° |
| 2026-05-07 17:08 | 41.48870 | -6.20549 | 30292 ft | 477 kts | 80° |
| 2026-05-07 17:08 | 41.49203 | -6.16146 | 30577 ft | 478 kts | 80° |
| 2026-05-07 17:08 | 41.49536 | -6.11739 | 30852 ft | 479 kts | 80° |
| 2026-05-07 17:08 | 41.49870 | -6.07302 | 31146 ft | 479 kts | 81° |
| 2026-05-07 17:09 | 41.50202 | -6.02887 | 31471 ft | 478 kts | 81° |
| 2026-05-07 17:09 | 41.50529 | -5.98480 | 31763 ft | 479 kts | 81° |
| 2026-05-07 17:09 | 41.50856 | -5.94049 | 32061 ft | 479 kts | 81° |
| 2026-05-07 17:09 | 41.51180 | -5.89617 | 32348 ft | 479 kts | 81° |
| 2026-05-07 17:10 | 41.51504 | -5.85190 | 32638 ft | 480 kts | 81° |
| 2026-05-07 17:10 | 41.51827 | -5.80759 | 32936 ft | 480 kts | 81° |
| 2026-05-07 17:10 | 41.52147 | -5.76331 | 33202 ft | 480 kts | 81° |
| 2026-05-07 17:10 | 41.52462 | -5.71889 | 33465 ft | 481 kts | 81° |
| 2026-05-07 17:11 | 41.52805 | -5.67459 | 33802 ft | 477 kts | 77° |
| 2026-05-07 17:11 | 41.53501 | -5.63164 | 34092 ft | 471 kts | 68° |
| 2026-05-07 17:11 | 41.54636 | -5.59094 | 34327 ft | 465 kts | 60° |
| 2026-05-07 17:11 | 41.55962 | -5.55168 | 34533 ft | 464 kts | 61° |
| 2026-05-07 17:12 | 41.57283 | -5.51231 | 34754 ft | 464 kts | 61° |
| 2026-05-07 17:12 | 41.58594 | -5.47295 | 34953 ft | 464 kts | 61° |
| 2026-05-07 17:12 | 41.59901 | -5.43357 | 35149 ft | 464 kts | 62° |
| 2026-05-07 17:12 | 41.61204 | -5.39417 | 35341 ft | 464 kts | 62° |
| 2026-05-07 17:13 | 41.62502 | -5.35479 | 35535 ft | 463 kts | 62° |
| 2026-05-07 17:13 | 41.63800 | -5.31538 | 35747 ft | 463 kts | 62° |
| 2026-05-07 17:13 | 41.65098 | -5.27601 | 35965 ft | 462 kts | 62° |
| 2026-05-07 17:13 | 41.66392 | -5.23672 | 36201 ft | 460 kts | 63° |
| 2026-05-07 17:14 | 41.67678 | -5.19764 | 36408 ft | 459 kts | 63° |
| 2026-05-07 17:14 | 41.68960 | -5.15866 | 36599 ft | 458 kts | 63° |
| 2026-05-07 17:14 | 41.70239 | -5.11968 | 36758 ft | 457 kts | 63° |
| 2026-05-07 17:14 | 41.71498 | -5.08122 | 36910 ft | 457 kts | 63° |
| 2026-05-07 17:15 | 41.74057 | -5.00299 | 36921 ft | 459 kts | 63° |
| 2026-05-07 17:15 | 41.76609 | -4.92465 | 36925 ft | 459 kts | 64° |
| 2026-05-07 17:16 | 41.79159 | -4.84626 | 36922 ft | 458 kts | 64° |
| 2026-05-07 17:16 | 41.81700 | -4.76799 | 36920 ft | 458 kts | 64° |
| 2026-05-07 17:17 | 41.84231 | -4.68973 | 36923 ft | 458 kts | 64° |
| 2026-05-07 17:17 | 41.86761 | -4.61123 | 36928 ft | 459 kts | 64° |
| 2026-05-07 17:18 | 41.88880 | -4.54537 | 36928 ft | 459 kts | 64° |
| 2026-05-07 17:18 | 41.91399 | -4.46666 | 36946 ft | 459 kts | 65° |
| 2026-05-07 17:19 | 41.93908 | -4.38830 | 36932 ft | 459 kts | 65° |
| 2026-05-07 17:19 | 41.96421 | -4.30953 | 36937 ft | 459 kts | 65° |
| 2026-05-07 17:20 | 41.98927 | -4.23066 | 36932 ft | 458 kts | 65° |
| 2026-05-07 17:20 | 42.01421 | -4.15176 | 36932 ft | 458 kts | 65° |
| 2026-05-07 17:21 | 42.03949 | -4.07304 | 36941 ft | 458 kts | 63° |
| 2026-05-07 17:21 | 42.06679 | -3.99571 | 36935 ft | 457 kts | 62° |
| 2026-05-07 17:22 | 42.09475 | -3.91882 | 36936 ft | 457 kts | 62° |
| 2026-05-07 17:22 | 42.12228 | -3.84153 | 36935 ft | 458 kts | 63° |
| 2026-05-07 17:23 | 42.14935 | -3.76387 | 36942 ft | 458 kts | 63° |
| 2026-05-07 17:23 | 42.17642 | -3.68611 | 36928 ft | 459 kts | 63° |
| 2026-05-07 17:24 | 42.20355 | -3.60809 | 36949 ft | 459 kts | 63° |
| 2026-05-07 17:24 | 42.23068 | -3.53011 | 36950 ft | 459 kts | 63° |
| 2026-05-07 17:25 | 42.25772 | -3.45200 | 36952 ft | 460 kts | 63° |
| 2026-05-07 17:25 | 42.28478 | -3.37376 | 36949 ft | 460 kts | 64° |
| 2026-05-07 17:26 | 42.31185 | -3.29537 | 36941 ft | 460 kts | 64° |
| 2026-05-07 17:26 | 42.33884 | -3.21695 | 36937 ft | 460 kts | 64° |
| 2026-05-07 17:27 | 42.36574 | -3.13835 | 36949 ft | 461 kts | 64° |
| 2026-05-07 17:27 | 42.39260 | -3.05962 | 36943 ft | 461 kts | 64° |
| 2026-05-07 17:28 | 42.41933 | -2.98087 | 36934 ft | 461 kts | 65° |
| 2026-05-07 17:28 | 42.43922 | -2.89935 | 36925 ft | 460 kts | 83° |
| 2026-05-07 17:29 | 42.43862 | -2.81343 | 36916 ft | 456 kts | 103° |
| 2026-05-07 17:29 | 42.42244 | -2.73021 | 36911 ft | 455 kts | 108° |
| 2026-05-07 17:30 | 42.40547 | -2.64767 | 36908 ft | 456 kts | 108° |
| 2026-05-07 17:30 | 42.38850 | -2.56564 | 36920 ft | 456 kts | 108° |
| 2026-05-07 17:31 | 42.37129 | -2.48305 | 36910 ft | 456 kts | 108° |
| 2026-05-07 17:31 | 42.35403 | -2.40041 | 36913 ft | 457 kts | 108° |
| 2026-05-07 17:32 | 42.33678 | -2.31777 | 36918 ft | 457 kts | 108° |
| 2026-05-07 17:32 | 42.31941 | -2.23508 | 36922 ft | 457 kts | 108° |
| 2026-05-07 17:33 | 42.30194 | -2.15252 | 36930 ft | 457 kts | 108° |
| 2026-05-07 17:33 | 42.28442 | -2.06996 | 36930 ft | 457 kts | 108° |
| 2026-05-07 17:34 | 42.26689 | -1.98752 | 36933 ft | 457 kts | 108° |
| 2026-05-07 17:34 | 42.24930 | -1.90495 | 36924 ft | 457 kts | 109° |
| 2026-05-07 17:35 | 42.23166 | -1.82256 | 36937 ft | 457 kts | 109° |
| 2026-05-07 17:35 | 42.21396 | -1.74033 | 36927 ft | 457 kts | 109° |
| 2026-05-07 17:36 | 42.19614 | -1.65808 | 36940 ft | 456 kts | 109° |
| 2026-05-07 17:36 | 42.17829 | -1.57592 | 36912 ft | 457 kts | 109° |
| 2026-05-07 17:37 | 42.16035 | -1.49381 | 36917 ft | 457 kts | 109° |
| 2026-05-07 17:37 | 42.14244 | -1.41191 | 36928 ft | 456 kts | 109° |
| 2026-05-07 17:38 | 42.12448 | -1.32995 | 36934 ft | 456 kts | 109° |
| 2026-05-07 17:38 | 42.10639 | -1.24808 | 36937 ft | 456 kts | 109° |
| 2026-05-07 17:39 | 42.08825 | -1.16618 | 36927 ft | 456 kts | 109° |
| 2026-05-07 17:39 | 42.07017 | -1.08445 | 36932 ft | 455 kts | 109° |
| 2026-05-07 17:40 | 42.05204 | -1.00289 | 36944 ft | 455 kts | 109° |
| 2026-05-07 17:40 | 42.03387 | -0.92148 | 36945 ft | 454 kts | 109° |
| 2026-05-07 17:41 | 42.01565 | -0.84008 | 36948 ft | 454 kts | 109° |
| 2026-05-07 17:41 | 41.99734 | -0.75882 | 36940 ft | 454 kts | 110° |
| 2026-05-07 17:42 | 41.97892 | -0.67758 | 36943 ft | 454 kts | 109° |
| 2026-05-07 17:42 | 41.96041 | -0.59641 | 36948 ft | 455 kts | 109° |
| 2026-05-07 17:43 | 41.94184 | -0.51515 | 36949 ft | 455 kts | 109° |
| 2026-05-07 17:43 | 41.92322 | -0.43381 | 36960 ft | 456 kts | 110° |
| 2026-05-07 17:44 | 41.90447 | -0.35241 | 36965 ft | 456 kts | 110° |
| 2026-05-07 17:44 | 41.88586 | -0.27158 | 36964 ft | 457 kts | 110° |
| 2026-05-07 17:45 | 41.86696 | -0.18966 | 36958 ft | 457 kts | 110° |
| 2026-05-07 17:45 | 41.84823 | -0.10873 | 36957 ft | 457 kts | 110° |
| 2026-05-07 17:46 | 41.82934 | -0.02741 | 36953 ft | 457 kts | 110° |
| 2026-05-07 17:46 | 41.81037 | 0.05394 | 36944 ft | 457 kts | 110° |
| 2026-05-07 17:47 | 41.79129 | 0.13528 | 36950 ft | 457 kts | 110° |
| 2026-05-07 17:47 | 41.77211 | 0.21652 | 36942 ft | 458 kts | 110° |
| 2026-05-07 17:48 | 41.75289 | 0.29782 | 36938 ft | 458 kts | 110° |
| 2026-05-07 17:48 | 41.73361 | 0.37927 | 36936 ft | 459 kts | 110° |
| 2026-05-07 17:49 | 41.71421 | 0.46075 | 36937 ft | 460 kts | 111° |
| 2026-05-07 17:49 | 41.69471 | 0.54222 | 36943 ft | 460 kts | 111° |
| 2026-05-07 17:50 | 41.67519 | 0.62374 | 36953 ft | 460 kts | 111° |
| 2026-05-07 17:50 | 41.65548 | 0.70518 | 36958 ft | 460 kts | 112° |
| 2026-05-07 17:51 | 41.63463 | 0.78592 | 36955 ft | 459 kts | 114° |
| 2026-05-07 17:51 | 41.61320 | 0.86628 | 36962 ft | 459 kts | 114° |
| 2026-05-07 17:52 | 41.59194 | 0.94669 | 36975 ft | 459 kts | 113° |
| 2026-05-07 17:52 | 41.57087 | 1.02725 | 36975 ft | 459 kts | 113° |
| 2026-05-07 17:53 | 41.54971 | 1.10767 | 36963 ft | 459 kts | 114° |
| 2026-05-07 17:53 | 41.52925 | 1.18854 | 36958 ft | 461 kts | 112° |
| 2026-05-07 17:54 | 41.51077 | 1.27027 | 36975 ft | 462 kts | 111° |
| 2026-05-07 17:54 | 41.49244 | 1.35248 | 36978 ft | 462 kts | 112° |
| 2026-05-07 17:55 | 41.47372 | 1.43377 | 36978 ft | 462 kts | 112° |
| 2026-05-07 17:55 | 41.45446 | 1.51549 | 36983 ft | 462 kts | 112° |
| 2026-05-07 17:56 | 41.43526 | 1.59727 | 36978 ft | 462 kts | 112° |
| 2026-05-07 17:56 | 41.41606 | 1.67903 | 36979 ft | 463 kts | 113° |
| 2026-05-07 17:57 | 41.39935 | 1.74736 | 36981 ft | 463 kts | 114° |
| 2026-05-07 17:57 | 41.37517 | 1.84169 | 36986 ft | 463 kts | 114° |
| 2026-05-07 17:58 | 41.35428 | 1.92273 | 36973 ft | 463 kts | 115° |
| 2026-05-07 17:58 | 41.33349 | 2.00401 | 36977 ft | 464 kts | 114° |
| 2026-05-07 17:59 | 41.31277 | 2.08523 | 36979 ft | 463 kts | 114° |
| 2026-05-07 17:59 | 41.29706 | 2.16892 | 36987 ft | 468 kts | 107° |
| 2026-05-07 18:00 | 41.28561 | 2.23920 | 36989 ft | 468 kts | 108° |
| 2026-05-07 18:00 | 41.27163 | 2.32368 | 36975 ft | 468 kts | 108° |
| 2026-05-07 18:01 | 41.25758 | 2.40822 | 36980 ft | 469 kts | 108° |
| 2026-05-07 18:01 | 41.24343 | 2.49281 | 36981 ft | 469 kts | 108° |
| 2026-05-07 18:02 | 41.22212 | 2.61979 | 36983 ft | 470 kts | 108° |
| 2026-05-07 18:03 | 41.20785 | 2.70440 | 36968 ft | 470 kts | 108° |
| 2026-05-07 18:03 | 41.19349 | 2.78903 | 36985 ft | 470 kts | 108° |
| 2026-05-07 18:04 | 41.17908 | 2.87359 | 36991 ft | 469 kts | 108° |
| 2026-05-07 18:04 | 41.16455 | 2.95808 | 36991 ft | 469 kts | 108° |
| 2026-05-07 18:05 | 41.15005 | 3.04243 | 36987 ft | 469 kts | 108° |
| 2026-05-07 18:05 | 41.13545 | 3.12670 | 36986 ft | 469 kts | 109° |
| 2026-05-07 18:06 | 41.12081 | 3.21095 | 36983 ft | 469 kts | 108° |
| 2026-05-07 18:06 | 41.10617 | 3.29523 | 36984 ft | 469 kts | 109° |
| 2026-05-07 18:07 | 41.09140 | 3.37943 | 36989 ft | 468 kts | 109° |
| 2026-05-07 18:07 | 41.07653 | 3.46343 | 36971 ft | 468 kts | 109° |
| 2026-05-07 18:08 | 41.06162 | 3.54745 | 36980 ft | 468 kts | 109° |
| 2026-05-07 18:08 | 41.04676 | 3.63144 | 36984 ft | 468 kts | 109° |
| 2026-05-07 18:09 | 41.03180 | 3.71543 | 36988 ft | 469 kts | 109° |
| 2026-05-07 18:09 | 41.01674 | 3.79941 | 36989 ft | 469 kts | 109° |
| 2026-05-07 18:10 | 41.00155 | 3.88331 | 36975 ft | 468 kts | 109° |
| 2026-05-07 18:10 | 40.98631 | 3.96705 | 36981 ft | 468 kts | 109° |
| 2026-05-07 18:11 | 40.97107 | 4.05077 | 36982 ft | 468 kts | 109° |
| 2026-05-07 18:11 | 40.95580 | 4.13452 | 36985 ft | 468 kts | 109° |
| 2026-05-07 18:12 | 40.94044 | 4.21813 | 36959 ft | 468 kts | 110° |
| 2026-05-07 18:12 | 40.92508 | 4.30115 | 36973 ft | 468 kts | 110° |
| 2026-05-07 18:13 | 40.90956 | 4.38461 | 36978 ft | 467 kts | 110° |
| 2026-05-07 18:13 | 40.89398 | 4.46807 | 36979 ft | 467 kts | 110° |
| 2026-05-07 18:14 | 40.87843 | 4.55155 | 36977 ft | 468 kts | 110° |
| 2026-05-07 18:14 | 40.86290 | 4.63503 | 36963 ft | 468 kts | 110° |
| 2026-05-07 18:15 | 40.85206 | 4.72046 | 36967 ft | 474 kts | 103° |
| 2026-05-07 18:15 | 40.84418 | 4.80700 | 36975 ft | 475 kts | 103° |
| 2026-05-07 18:16 | 40.83614 | 4.89358 | 36975 ft | 475 kts | 103° |
| 2026-05-07 18:16 | 40.82794 | 4.98015 | 36965 ft | 475 kts | 103° |
| 2026-05-07 18:17 | 40.81966 | 5.06672 | 36974 ft | 475 kts | 103° |
| 2026-05-07 18:17 | 40.81138 | 5.15330 | 36979 ft | 475 kts | 103° |
| 2026-05-07 18:18 | 40.80307 | 5.23987 | 36983 ft | 475 kts | 103° |
| 2026-05-07 18:18 | 40.79467 | 5.32644 | 36982 ft | 475 kts | 103° |
| 2026-05-07 18:19 | 40.78624 | 5.41291 | 36961 ft | 475 kts | 103° |
| 2026-05-07 18:19 | 40.77782 | 5.49915 | 36956 ft | 475 kts | 103° |
| 2026-05-07 18:20 | 40.76917 | 5.58572 | 36951 ft | 476 kts | 103° |
| 2026-05-07 18:20 | 40.76047 | 5.67252 | 36967 ft | 477 kts | 103° |
| 2026-05-07 18:21 | 40.75189 | 5.75863 | 36937 ft | 478 kts | 104° |
| 2026-05-07 18:21 | 40.74307 | 5.84558 | 36949 ft | 479 kts | 104° |
| 2026-05-07 18:22 | 40.73408 | 5.93279 | 36949 ft | 480 kts | 104° |
| 2026-05-07 18:22 | 40.72506 | 6.02010 | 36962 ft | 481 kts | 104° |
| 2026-05-07 18:23 | 40.71599 | 6.10739 | 36946 ft | 481 kts | 104° |
| 2026-05-07 18:23 | 40.70682 | 6.19486 | 36941 ft | 483 kts | 104° |
| 2026-05-07 18:24 | 40.69754 | 6.28272 | 36947 ft | 484 kts | 104° |
| 2026-05-07 18:24 | 40.68818 | 6.37063 | 36955 ft | 485 kts | 104° |
| 2026-05-07 18:25 | 40.67874 | 6.45874 | 36966 ft | 486 kts | 104° |
| 2026-05-07 18:25 | 40.66923 | 6.54711 | 36939 ft | 487 kts | 104° |
| 2026-05-07 18:26 | 40.65966 | 6.63561 | 36944 ft | 489 kts | 104° |
| 2026-05-07 18:26 | 40.64997 | 6.72422 | 36952 ft | 489 kts | 104° |
| 2026-05-07 18:27 | 40.64015 | 6.81285 | 36962 ft | 490 kts | 104° |
| 2026-05-07 18:27 | 40.63035 | 6.90103 | 36941 ft | 490 kts | 104° |
| 2026-05-07 18:28 | 40.62038 | 6.99057 | 36945 ft | 491 kts | 104° |
| 2026-05-07 18:28 | 40.61041 | 7.07902 | 36954 ft | 492 kts | 104° |
| 2026-05-07 18:29 | 40.60023 | 7.16875 | 36961 ft | 492 kts | 104° |
| 2026-05-07 18:29 | 40.59014 | 7.25715 | 36965 ft | 492 kts | 104° |
| 2026-05-07 18:30 | 40.57984 | 7.34618 | 36966 ft | 492 kts | 105° |
| 2026-05-07 18:30 | 40.56938 | 7.43578 | 36968 ft | 492 kts | 105° |
| 2026-05-07 18:31 | 40.56760 | 7.52636 | 36967 ft | 503 kts | 87° |
| 2026-05-07 18:31 | 40.57573 | 7.61716 | 36939 ft | 503 kts | 87° |
| 2026-05-07 18:32 | 40.58366 | 7.70865 | 36948 ft | 504 kts | 88° |
| 2026-05-07 18:32 | 40.59145 | 7.80030 | 36950 ft | 504 kts | 88° |
| 2026-05-07 18:33 | 40.59911 | 7.89201 | 36959 ft | 504 kts | 88° |
| 2026-05-07 18:33 | 40.60670 | 7.98361 | 36941 ft | 504 kts | 87° |
| 2026-05-07 18:34 | 40.61434 | 8.07535 | 36950 ft | 504 kts | 87° |
| 2026-05-07 18:34 | 40.62195 | 8.16712 | 36972 ft | 505 kts | 87° |
| 2026-05-07 18:35 | 40.62947 | 8.25905 | 36977 ft | 504 kts | 88° |
| 2026-05-07 18:35 | 40.63684 | 8.35072 | 36952 ft | 503 kts | 87° |
| 2026-05-07 18:36 | 40.64409 | 8.44225 | 36959 ft | 502 kts | 87° |
| 2026-05-07 18:36 | 40.65125 | 8.53369 | 36965 ft | 502 kts | 87° |
| 2026-05-07 18:37 | 40.65835 | 8.62511 | 36968 ft | 502 kts | 88° |
| 2026-05-07 18:37 | 40.66535 | 8.71648 | 36973 ft | 501 kts | 88° |
| 2026-05-07 18:38 | 40.67200 | 8.80794 | 36958 ft | 500 kts | 91° |
| 2026-05-07 18:38 | 40.66562 | 8.89781 | 36963 ft | 488 kts | 110° |
| 2026-05-07 18:39 | 40.64327 | 8.98031 | 36974 ft | 480 kts | 118° |
| 2026-05-07 18:39 | 40.61867 | 9.06273 | 36976 ft | 481 kts | 118° |
| 2026-05-07 18:40 | 40.59434 | 9.14478 | 36963 ft | 481 kts | 117° |
| 2026-05-07 18:40 | 40.56992 | 9.22672 | 36970 ft | 481 kts | 117° |
| 2026-05-07 18:41 | 40.54529 | 9.30862 | 36981 ft | 481 kts | 118° |
| 2026-05-07 18:41 | 40.52072 | 9.38988 | 36971 ft | 482 kts | 118° |
| 2026-05-07 18:42 | 40.49601 | 9.47173 | 36942 ft | 482 kts | 118° |
| 2026-05-07 18:42 | 40.47124 | 9.55362 | 36966 ft | 482 kts | 118° |
| 2026-05-07 18:43 | 40.44636 | 9.63540 | 36980 ft | 482 kts | 118° |
| 2026-05-07 18:43 | 40.42564 | 9.70330 | 36977 ft | 482 kts | 118° |
| 2026-05-07 18:44 | 40.40069 | 9.78488 | 36978 ft | 482 kts | 118° |
| 2026-05-07 18:44 | 40.37571 | 9.86642 | 36965 ft | 481 kts | 118° |
| 2026-05-07 18:45 | 40.35068 | 9.94768 | 36972 ft | 481 kts | 118° |
| 2026-05-07 18:45 | 40.32560 | 10.02886 | 36977 ft | 481 kts | 118° |
| 2026-05-07 18:46 | 40.30048 | 10.11002 | 36981 ft | 480 kts | 119° |
| 2026-05-07 18:46 | 40.27528 | 10.19106 | 36984 ft | 480 kts | 119° |
| 2026-05-07 18:47 | 40.25008 | 10.27197 | 36976 ft | 480 kts | 119° |
| 2026-05-07 18:47 | 40.22483 | 10.35280 | 36977 ft | 480 kts | 119° |
| 2026-05-07 18:48 | 40.19955 | 10.43345 | 36975 ft | 479 kts | 119° |
| 2026-05-07 18:48 | 40.17419 | 10.51408 | 36976 ft | 479 kts | 119° |
| 2026-05-07 18:49 | 40.15348 | 10.59748 | 36944 ft | 485 kts | 112° |
| 2026-05-07 18:49 | 40.13546 | 10.68242 | 36956 ft | 485 kts | 112° |
| 2026-05-07 18:50 | 40.11719 | 10.76742 | 36969 ft | 485 kts | 112° |
| 2026-05-07 18:50 | 40.09894 | 10.85235 | 36974 ft | 485 kts | 112° |
| 2026-05-07 18:51 | 40.08066 | 10.93717 | 36970 ft | 485 kts | 112° |
| 2026-05-07 18:51 | 40.06226 | 11.02189 | 36969 ft | 485 kts | 112° |
| 2026-05-07 18:52 | 40.04388 | 11.10649 | 36975 ft | 485 kts | 112° |
| 2026-05-07 18:52 | 40.02548 | 11.19057 | 36976 ft | 485 kts | 112° |
| 2026-05-07 18:53 | 40.00691 | 11.27518 | 36973 ft | 485 kts | 112° |
| 2026-05-07 18:53 | 39.98832 | 11.35974 | 36950 ft | 485 kts | 113° |
| 2026-05-07 18:54 | 39.96962 | 11.44432 | 36953 ft | 486 kts | 113° |
| 2026-05-07 18:54 | 39.95061 | 11.52943 | 36962 ft | 486 kts | 113° |
| 2026-05-07 18:55 | 39.93182 | 11.61402 | 36957 ft | 486 kts | 113° |
| 2026-05-07 18:55 | 39.91310 | 11.69816 | 36942 ft | 487 kts | 114° |
| 2026-05-07 18:56 | 39.89407 | 11.78284 | 36943 ft | 488 kts | 114° |
| 2026-05-07 18:56 | 39.87482 | 11.86817 | 36950 ft | 488 kts | 114° |
| 2026-05-07 18:57 | 39.85584 | 11.95254 | 36923 ft | 489 kts | 114° |
| 2026-05-07 18:57 | 39.83654 | 12.03747 | 36929 ft | 490 kts | 115° |
| 2026-05-07 18:58 | 39.81715 | 12.12260 | 36907 ft | 492 kts | 116° |
| 2026-05-07 18:58 | 39.79765 | 12.20802 | 36914 ft | 494 kts | 116° |
| 2026-05-07 18:59 | 39.77796 | 12.29377 | 36929 ft | 495 kts | 116° |
| 2026-05-07 18:59 | 39.75821 | 12.37955 | 36937 ft | 496 kts | 116° |
| 2026-05-07 19:00 | 39.73838 | 12.46547 | 36916 ft | 497 kts | 116° |
| 2026-05-07 19:00 | 39.71836 | 12.55152 | 36921 ft | 498 kts | 117° |
| 2026-05-07 19:01 | 39.69825 | 12.63789 | 36926 ft | 500 kts | 116° |
| 2026-05-07 19:01 | 39.67813 | 12.72424 | 36931 ft | 500 kts | 117° |
| 2026-05-07 19:02 | 39.65787 | 12.81065 | 36896 ft | 501 kts | 117° |
| 2026-05-07 19:02 | 39.63750 | 12.89708 | 36907 ft | 502 kts | 117° |
| 2026-05-07 19:03 | 39.61701 | 12.98369 | 36920 ft | 502 kts | 117° |
| 2026-05-07 19:03 | 39.59645 | 13.07027 | 36922 ft | 503 kts | 117° |
| 2026-05-07 19:04 | 39.57585 | 13.15691 | 36902 ft | 503 kts | 117° |
| 2026-05-07 19:04 | 39.55534 | 13.24312 | 36899 ft | 504 kts | 117° |
| 2026-05-07 19:05 | 39.53464 | 13.33002 | 36904 ft | 505 kts | 117° |
| 2026-05-07 19:05 | 39.51372 | 13.41684 | 36901 ft | 505 kts | 117° |
| 2026-05-07 19:06 | 39.49268 | 13.50365 | 36883 ft | 506 kts | 117° |
| 2026-05-07 19:06 | 39.46115 | 13.63419 | 36898 ft | 507 kts | 116° |
| 2026-05-07 19:07 | 39.44003 | 13.72125 | 36905 ft | 508 kts | 117° |
| 2026-05-07 19:07 | 39.41869 | 13.80852 | 36888 ft | 508 kts | 117° |
| 2026-05-07 19:08 | 39.39720 | 13.89553 | 36873 ft | 509 kts | 116° |
| 2026-05-07 19:08 | 39.37542 | 13.98281 | 36881 ft | 510 kts | 116° |
| 2026-05-07 19:09 | 39.35366 | 14.07007 | 36904 ft | 511 kts | 116° |
| 2026-05-07 19:09 | 39.33176 | 14.15749 | 36904 ft | 511 kts | 117° |
| 2026-05-07 19:10 | 39.30973 | 14.24477 | 36882 ft | 512 kts | 116° |
| 2026-05-07 19:10 | 39.28775 | 14.33231 | 36889 ft | 513 kts | 116° |
| 2026-05-07 19:11 | 39.26582 | 14.41996 | 36895 ft | 513 kts | 116° |
| 2026-05-07 19:11 | 39.24386 | 14.50705 | 36913 ft | 513 kts | 116° |
| 2026-05-07 19:12 | 39.22169 | 14.59444 | 36916 ft | 514 kts | 116° |
| 2026-05-07 19:12 | 39.19946 | 14.68200 | 36919 ft | 514 kts | 116° |
| 2026-05-07 19:13 | 39.17720 | 14.76972 | 36920 ft | 514 kts | 116° |
| 2026-05-07 19:13 | 39.15483 | 14.85717 | 36918 ft | 514 kts | 116° |
| 2026-05-07 19:14 | 39.13238 | 14.94460 | 36889 ft | 514 kts | 116° |
| 2026-05-07 19:14 | 39.10982 | 15.03202 | 36909 ft | 514 kts | 116° |
| 2026-05-07 19:15 | 39.08721 | 15.11930 | 36927 ft | 514 kts | 116° |
| 2026-05-07 19:15 | 39.06454 | 15.20674 | 36930 ft | 515 kts | 116° |
| 2026-05-07 19:16 | 39.04204 | 15.29348 | 36931 ft | 515 kts | 115° |
| 2026-05-07 19:16 | 39.01915 | 15.38133 | 36951 ft | 515 kts | 115° |
| 2026-05-07 19:17 | 38.99638 | 15.46796 | 36961 ft | 514 kts | 116° |
| 2026-05-07 19:17 | 38.97348 | 15.55496 | 36943 ft | 515 kts | 115° |
| 2026-05-07 19:18 | 38.95051 | 15.64230 | 36939 ft | 515 kts | 115° |
| 2026-05-07 19:18 | 38.92749 | 15.72939 | 36948 ft | 515 kts | 115° |
| 2026-05-07 19:19 | 38.90437 | 15.81657 | 36964 ft | 516 kts | 115° |
| 2026-05-07 19:19 | 38.88112 | 15.90370 | 36969 ft | 516 kts | 115° |
| 2026-05-07 19:20 | 38.85797 | 15.99023 | 36971 ft | 516 kts | 115° |
| 2026-05-07 19:20 | 38.83468 | 16.07722 | 36954 ft | 516 kts | 115° |
| 2026-05-07 19:21 | 38.81128 | 16.16428 | 36960 ft | 516 kts | 115° |
| 2026-05-07 19:21 | 38.78778 | 16.25139 | 36968 ft | 517 kts | 115° |
| 2026-05-07 19:22 | 38.77334 | 16.34204 | 36970 ft | 526 kts | 94° |
| 2026-05-07 19:22 | 38.77435 | 16.38887 | 36944 ft | 527 kts | 83° |
| 2026-05-07 19:22 | 38.78110 | 16.43501 | 36955 ft | 526 kts | 72° |
| 2026-05-07 19:23 | 38.80795 | 16.52157 | 36982 ft | 523 kts | 63° |
| 2026-05-07 19:23 | 38.83707 | 16.60721 | 37060 ft | 525 kts | 63° |
| 2026-05-07 19:24 | 38.86597 | 16.69331 | 37074 ft | 525 kts | 63° |
| 2026-05-07 19:24 | 38.89484 | 16.77948 | 37051 ft | 525 kts | 63° |
| 2026-05-07 19:25 | 38.92352 | 16.86506 | 37063 ft | 526 kts | 63° |
| 2026-05-07 19:25 | 38.95254 | 16.95199 | 37018 ft | 526 kts | 63° |
| 2026-05-07 19:26 | 38.97554 | 17.04055 | 37011 ft | 529 kts | 79° |
| 2026-05-07 19:26 | 38.97856 | 17.13460 | 37018 ft | 527 kts | 99° |
| 2026-05-07 19:27 | 38.96212 | 17.22536 | 37004 ft | 520 kts | 112° |
| 2026-05-07 19:27 | 38.94078 | 17.31433 | 37005 ft | 521 kts | 111° |
| 2026-05-07 19:28 | 38.91935 | 17.40338 | 36989 ft | 522 kts | 111° |
| 2026-05-07 19:28 | 38.89772 | 17.49250 | 36991 ft | 523 kts | 111° |
| 2026-05-07 19:29 | 38.87604 | 17.58170 | 36997 ft | 524 kts | 111° |
| 2026-05-07 19:29 | 38.85426 | 17.67099 | 37012 ft | 524 kts | 111° |
| 2026-05-07 19:30 | 38.83243 | 17.76023 | 36990 ft | 525 kts | 111° |
| 2026-05-07 19:30 | 38.81056 | 17.84911 | 37006 ft | 525 kts | 111° |
| 2026-05-07 19:31 | 38.79208 | 17.92390 | 37019 ft | 526 kts | 111° |
| 2026-05-07 19:31 | 38.76631 | 18.02767 | 37011 ft | 526 kts | 111° |
| 2026-05-07 19:32 | 38.74776 | 18.10240 | 37012 ft | 526 kts | 111° |
| 2026-05-07 19:32 | 38.72566 | 18.19119 | 37023 ft | 526 kts | 111° |
| 2026-05-07 19:33 | 38.70330 | 18.28037 | 37020 ft | 526 kts | 111° |
| 2026-05-07 19:33 | 38.68066 | 18.36945 | 37022 ft | 526 kts | 112° |
| 2026-05-07 19:34 | 38.65789 | 18.45848 | 37024 ft | 527 kts | 111° |
| 2026-05-07 19:34 | 38.63502 | 18.54744 | 37025 ft | 527 kts | 111° |
| 2026-05-07 19:35 | 38.61216 | 18.63646 | 37032 ft | 527 kts | 111° |
| 2026-05-07 19:35 | 38.58937 | 18.72545 | 37036 ft | 527 kts | 111° |
| 2026-05-07 19:36 | 38.56652 | 18.81432 | 37033 ft | 526 kts | 111° |
| 2026-05-07 19:36 | 38.54355 | 18.90310 | 37042 ft | 526 kts | 111° |
| 2026-05-07 19:37 | 38.52067 | 18.99201 | 37051 ft | 527 kts | 108° |
| 2026-05-07 19:37 | 38.50522 | 19.08368 | 37047 ft | 528 kts | 103° |
| 2026-05-07 19:38 | 38.49074 | 19.17502 | 37048 ft | 528 kts | 102° |
| 2026-05-07 19:38 | 38.47608 | 19.26693 | 37063 ft | 528 kts | 102° |
| 2026-05-07 19:39 | 38.46144 | 19.35874 | 37066 ft | 528 kts | 102° |
| 2026-05-07 19:39 | 38.44666 | 19.45042 | 37069 ft | 527 kts | 103° |
| 2026-05-07 19:40 | 38.43182 | 19.54197 | 37074 ft | 527 kts | 102° |
| 2026-05-07 19:40 | 38.41694 | 19.63335 | 37078 ft | 526 kts | 102° |
| 2026-05-07 19:41 | 38.40194 | 19.72464 | 37087 ft | 526 kts | 102° |
| 2026-05-07 19:41 | 38.38697 | 19.81584 | 37074 ft | 525 kts | 102° |
| 2026-05-07 19:42 | 38.37194 | 19.90689 | 37083 ft | 525 kts | 102° |
| 2026-05-07 19:42 | 38.35680 | 19.99792 | 37088 ft | 525 kts | 102° |
| 2026-05-07 19:43 | 38.34161 | 20.08887 | 37097 ft | 525 kts | 102° |
| 2026-05-07 19:43 | 38.32650 | 20.17915 | 37096 ft | 524 kts | 101° |
| 2026-05-07 19:44 | 38.31130 | 20.26986 | 37115 ft | 524 kts | 100° |
| 2026-05-07 19:44 | 38.29865 | 20.36110 | 37102 ft | 523 kts | 97° |
| 2026-05-07 19:45 | 38.28801 | 20.45266 | 37103 ft | 523 kts | 97° |
| 2026-05-07 19:45 | 38.27700 | 20.54402 | 37107 ft | 522 kts | 97° |
| 2026-05-07 19:46 | 38.26518 | 20.63497 | 37117 ft | 521 kts | 98° |
| 2026-05-07 19:46 | 38.25314 | 20.72577 | 37109 ft | 520 kts | 98° |
| 2026-05-07 19:47 | 38.24126 | 20.81653 | 37105 ft | 520 kts | 97° |
| 2026-05-07 19:47 | 38.22936 | 20.90715 | 37123 ft | 519 kts | 97° |
| 2026-05-07 19:48 | 38.21734 | 20.99761 | 37117 ft | 519 kts | 97° |
| 2026-05-07 19:48 | 38.20528 | 21.08805 | 37128 ft | 519 kts | 97° |
| 2026-05-07 19:49 | 38.19316 | 21.17847 | 37148 ft | 518 kts | 97° |
| 2026-05-07 19:49 | 38.18103 | 21.26813 | 37157 ft | 518 kts | 97° |
| 2026-05-07 19:50 | 38.16876 | 21.35835 | 37162 ft | 518 kts | 97° |
| 2026-05-07 19:50 | 38.15122 | 21.44706 | 37147 ft | 520 kts | 112° |
| 2026-05-07 19:51 | 38.12008 | 21.52978 | 37151 ft | 520 kts | 117° |
| 2026-05-07 19:51 | 38.08815 | 21.61211 | 37139 ft | 520 kts | 116° |
| 2026-05-07 19:52 | 38.05621 | 21.69458 | 37132 ft | 520 kts | 117° |
| 2026-05-07 19:52 | 38.02422 | 21.77692 | 37138 ft | 521 kts | 117° |
| 2026-05-07 19:53 | 37.99208 | 21.85918 | 37140 ft | 520 kts | 117° |
| 2026-05-07 19:53 | 37.95992 | 21.94120 | 37145 ft | 520 kts | 116° |
| 2026-05-07 19:54 | 37.92787 | 22.02278 | 37152 ft | 520 kts | 117° |
| 2026-05-07 19:54 | 37.89538 | 22.10528 | 37158 ft | 520 kts | 117° |
| 2026-05-07 19:55 | 37.86328 | 22.18657 | 37160 ft | 520 kts | 116° |
| 2026-05-07 19:55 | 37.83090 | 22.26839 | 37160 ft | 520 kts | 116° |
| 2026-05-07 19:56 | 37.79850 | 22.35004 | 37170 ft | 520 kts | 116° |
| 2026-05-07 19:56 | 37.76601 | 22.43171 | 37177 ft | 520 kts | 116° |
| 2026-05-07 19:57 | 37.73363 | 22.51265 | 37143 ft | 508 kts | 116° |
| 2026-05-07 19:57 | 37.70186 | 22.59207 | 37145 ft | 506 kts | 115° |
| 2026-05-07 19:58 | 37.67227 | 22.67248 | 37145 ft | 505 kts | 112° |
| 2026-05-07 19:58 | 37.64430 | 22.75384 | 37141 ft | 505 kts | 112° |
| 2026-05-07 19:59 | 37.61601 | 22.83496 | 37139 ft | 506 kts | 113° |
| 2026-05-07 19:59 | 37.58691 | 22.91585 | 37143 ft | 506 kts | 114° |
| 2026-05-07 20:00 | 37.55761 | 22.99649 | 37144 ft | 507 kts | 114° |
| 2026-05-07 20:00 | 37.52862 | 23.07755 | 37146 ft | 506 kts | 107° |
| 2026-05-07 20:01 | 37.52034 | 23.12013 | 37156 ft | 498 kts | 91° |
| 2026-05-07 20:01 | 37.52033 | 23.16320 | 37113 ft | 487 kts | 76° |
| 2026-05-07 20:01 | 37.52748 | 23.20416 | 36170 ft | 484 kts | 62° |
| 2026-05-07 20:01 | 37.54288 | 23.24231 | 34906 ft | 483 kts | 46° |
| 2026-05-07 20:02 | 37.56480 | 23.27414 | 33716 ft | 480 kts | 33° |
| 2026-05-07 20:02 | 37.59141 | 23.29891 | 32582 ft | 473 kts | 21° |
| 2026-05-07 20:02 | 37.62002 | 23.31975 | 31499 ft | 477 kts | 21° |
| 2026-05-07 20:02 | 37.64850 | 23.34046 | 30519 ft | 480 kts | 22° |
| 2026-05-07 20:03 | 37.67797 | 23.36190 | 29292 ft | 485 kts | 23° |
| 2026-05-07 20:03 | 37.70730 | 23.38328 | 28048 ft | 489 kts | 24° |
| 2026-05-07 20:03 | 37.73653 | 23.40472 | 27507 ft | 479 kts | 24° |
| 2026-05-07 20:03 | 37.76474 | 23.42556 | 27369 ft | 462 kts | 25° |
| 2026-05-07 20:04 | 37.79027 | 23.44958 | 27239 ft | 457 kts | 38° |
| 2026-05-07 20:04 | 37.81041 | 23.48033 | 27118 ft | 453 kts | 53° |
| 2026-05-07 20:04 | 37.82356 | 23.51569 | 26993 ft | 450 kts | 69° |
| 2026-05-07 20:04 | 37.82919 | 23.55427 | 26874 ft | 446 kts | 85° |
| 2026-05-07 20:05 | 37.82709 | 23.59328 | 26503 ft | 446 kts | 101° |
| 2026-05-07 20:05 | 37.81706 | 23.63027 | 26120 ft | 450 kts | 118° |
| 2026-05-07 20:05 | 37.79885 | 23.66347 | 25743 ft | 471 kts | 136° |
| 2026-05-07 20:05 | 37.77297 | 23.68980 | 25345 ft | 485 kts | 153° |
| 2026-05-07 20:06 | 37.74158 | 23.70576 | 24968 ft | 488 kts | 171° |
| 2026-05-07 20:06 | 37.70813 | 23.70946 | 24572 ft | 482 kts | 188° |
| 2026-05-07 20:06 | 37.67578 | 23.70109 | 24067 ft | 468 kts | 205° |
| 2026-05-07 20:06 | 37.64777 | 23.68222 | 23542 ft | 449 kts | 219° |
| 2026-05-07 20:07 | 37.62302 | 23.65899 | 22959 ft | 439 kts | 221° |
| 2026-05-07 20:07 | 37.59895 | 23.63591 | 22387 ft | 431 kts | 220° |
| 2026-05-07 20:07 | 37.57509 | 23.61343 | 21804 ft | 424 kts | 220° |
| 2026-05-07 20:07 | 37.55155 | 23.59137 | 21249 ft | 418 kts | 220° |
| 2026-05-07 20:08 | 37.52858 | 23.56940 | 20703 ft | 411 kts | 224° |
| 2026-05-07 20:08 | 37.50982 | 23.54302 | 20219 ft | 399 kts | 240° |
| 2026-05-07 20:08 | 37.49801 | 23.51228 | 19983 ft | 383 kts | 255° |
| 2026-05-07 20:08 | 37.49326 | 23.48008 | 19889 ft | 367 kts | 269° |
| 2026-05-07 20:09 | 37.49508 | 23.44879 | 19814 ft | 351 kts | 282° |
| 2026-05-07 20:09 | 37.50268 | 23.42022 | 19736 ft | 338 kts | 295° |
| 2026-05-07 20:09 | 37.51501 | 23.39572 | 19667 ft | 327 kts | 308° |
| 2026-05-07 20:10 | 37.54942 | 23.36156 | 19526 ft | 310 kts | 332° |
| 2026-05-07 20:10 | 37.56961 | 23.35268 | 19332 ft | 307 kts | 344° |
| 2026-05-07 20:10 | 37.59081 | 23.34957 | 19087 ft | 307 kts | 356° |
| 2026-05-07 20:10 | 37.61210 | 23.35227 | 18839 ft | 308 kts | 9° |
| 2026-05-07 20:11 | 37.63243 | 23.36051 | 18609 ft | 307 kts | 18° |
| 2026-05-07 20:11 | 37.65224 | 23.37034 | 18360 ft | 304 kts | 18° |
| 2026-05-07 20:11 | 37.67176 | 23.37998 | 18091 ft | 300 kts | 18° |
| 2026-05-07 20:11 | 37.69102 | 23.38947 | 17856 ft | 295 kts | 17° |
| 2026-05-07 20:12 | 37.70998 | 23.39879 | 17624 ft | 290 kts | 17° |
| 2026-05-07 20:12 | 37.72883 | 23.40805 | 17217 ft | 293 kts | 17° |
| 2026-05-07 20:12 | 37.74790 | 23.41803 | 16685 ft | 302 kts | 24° |
| 2026-05-07 20:12 | 37.76585 | 23.43241 | 16249 ft | 308 kts | 35° |
| 2026-05-07 20:13 | 37.78124 | 23.45098 | 15997 ft | 306 kts | 46° |
| 2026-05-07 20:13 | 37.79436 | 23.47203 | 15759 ft | 303 kts | 49° |
| 2026-05-07 20:13 | 37.80722 | 23.49291 | 15514 ft | 299 kts | 49° |
| 2026-05-07 20:13 | 37.81988 | 23.51347 | 15268 ft | 295 kts | 49° |
| 2026-05-07 20:14 | 37.83252 | 23.53398 | 14916 ft | 297 kts | 49° |
| 2026-05-07 20:14 | 37.84511 | 23.55442 | 14526 ft | 299 kts | 49° |
| 2026-05-07 20:14 | 37.85811 | 23.57555 | 14133 ft | 302 kts | 49° |
| 2026-05-07 20:14 | 37.87109 | 23.59668 | 13725 ft | 304 kts | 49° |
| 2026-05-07 20:15 | 37.88407 | 23.61780 | 12952 ft | 313 kts | 50° |
| 2026-05-07 20:15 | 37.89754 | 23.63971 | 12127 ft | 318 kts | 50° |
| 2026-05-07 20:15 | 37.91123 | 23.66198 | 11311 ft | 323 kts | 50° |
| 2026-05-07 20:15 | 37.92509 | 23.68456 | 10514 ft | 326 kts | 51° |
| 2026-05-07 20:16 | 37.93884 | 23.70700 | 9876 ft | 322 kts | 51° |
| 2026-05-07 20:16 | 37.95212 | 23.72871 | 9735 ft | 301 kts | 51° |
| 2026-05-07 20:16 | 37.96448 | 23.74897 | 9601 ft | 282 kts | 51° |
| 2026-05-07 20:16 | 37.97613 | 23.76807 | 9447 ft | 265 kts | 51° |
| 2026-05-07 20:17 | 37.98727 | 23.78633 | 9331 ft | 260 kts | 51° |
| 2026-05-07 20:17 | 37.99818 | 23.80419 | 9204 ft | 252 kts | 50° |
| 2026-05-07 20:17 | 38.00890 | 23.82131 | 9073 ft | 244 kts | 50° |
| 2026-05-07 20:17 | 38.01941 | 23.83781 | 8890 ft | 239 kts | 50° |
| 2026-05-07 20:18 | 38.02986 | 23.85412 | 8604 ft | 238 kts | 50° |
| 2026-05-07 20:18 | 38.04032 | 23.87047 | 8297 ft | 239 kts | 50° |
| 2026-05-07 20:18 | 38.05078 | 23.88687 | 7983 ft | 239 kts | 50° |
| 2026-05-07 20:18 | 38.06130 | 23.90334 | 7662 ft | 240 kts | 50° |
| 2026-05-07 20:19 | 38.07182 | 23.91983 | 7343 ft | 241 kts | 50° |
| 2026-05-07 20:19 | 38.08237 | 23.93641 | 7033 ft | 242 kts | 51° |
| 2026-05-07 20:19 | 38.09163 | 23.95422 | 6710 ft | 243 kts | 65° |
| 2026-05-07 20:19 | 38.09553 | 23.96782 | 6466 ft | 244 kts | 76° |
| 2026-05-07 20:20 | 38.09803 | 23.98905 | 6022 ft | 249 kts | 85° |
| 2026-05-07 20:20 | 38.10001 | 24.01121 | 5583 ft | 255 kts | 85° |
| 2026-05-07 20:20 | 38.10208 | 24.03392 | 5171 ft | 254 kts | 85° |
| 2026-05-07 20:20 | 38.10269 | 24.05568 | 4679 ft | 243 kts | 106° |
| 2026-05-07 20:21 | 38.09508 | 24.07315 | 4275 ft | 217 kts | 142° |
| 2026-05-07 20:21 | 38.08238 | 24.08133 | 3923 ft | 199 kts | 174° |
| 2026-05-07 20:21 | 38.06922 | 24.08013 | 3632 ft | 185 kts | 199° |
| 2026-05-07 20:21 | 38.05838 | 24.07193 | 3241 ft | 180 kts | 216° |
| 2026-05-07 20:22 | 38.04838 | 24.06233 | 2801 ft | 179 kts | 216° |
| 2026-05-07 20:22 | 38.03871 | 24.05306 | 2507 ft | 168 kts | 216° |
| 2026-05-07 20:22 | 38.02980 | 24.04453 | 2278 ft | 153 kts | 216° |
| 2026-05-07 20:22 | 38.02149 | 24.03660 | 2079 ft | 147 kts | 216° |
| 2026-05-07 20:23 | 38.01341 | 24.02888 | 1896 ft | 144 kts | 215° |
| 2026-05-07 20:23 | 38.00542 | 24.02126 | 1703 ft | 145 kts | 216° |
| 2026-05-07 20:23 | 37.99738 | 24.01360 | 1498 ft | 144 kts | 216° |
| 2026-05-07 20:23 | 37.98937 | 24.00596 | 1311 ft | 144 kts | 216° |
| 2026-05-07 20:24 | 37.98146 | 23.99820 | 1089 ft | 144 kts | 218° |
| 2026-05-07 20:24 | 37.97341 | 23.99065 | 825 ft | 146 kts | 217° |
| 2026-05-07 20:24 | 37.96522 | 23.98300 | 633 ft | 148 kts | 218° |
| 2026-05-07 20:24 | 37.95705 | 23.97515 | 431 ft | 147 kts | 218° |
| 2026-05-07 20:25 | 37.94894 | 23.96740 | 311 ft | 146 kts | 218° |
| 2026-05-07 20:25 | 37.94160 | 23.96025 | 291 ft | 124 kts | 219° |
| 2026-05-07 20:25 | 37.93450 | 23.95365 | 292 ft | 107 kts | 217° |
| 2026-05-07 20:25 | 37.92990 | 23.94931 | 297 ft | 58 kts | 216° |
| 2026-05-07 20:26 | 37.92782 | 23.94735 | 301 ft | 29 kts | 216° |
| 2026-05-07 20:26 | 37.92642 | 23.94595 | 306 ft | 25 kts | 218° |
| 2026-05-07 20:26 | 37.92521 | 23.94485 | 307 ft | 15 kts | 216° |
| 2026-05-07 20:26 | 37.92484 | 23.94426 | 308 ft | 8 kts | 257° |
| 2026-05-07 20:27 | 37.92509 | 23.94355 | 308 ft | 11 kts | 289° |
| 2026-05-07 20:27 | 37.92572 | 23.94269 | 304 ft | 14 kts | 313° |
| 2026-05-07 20:27 | 37.92638 | 23.94188 | 302 ft | 14 kts | 348° |
| 2026-05-07 20:27 | 37.92716 | 23.94254 | 302 ft | 15 kts | 42° |
| 2026-05-07 20:28 | 37.92805 | 23.94332 | 302 ft | 17 kts | 37° |
| 2026-05-07 20:28 | 37.92888 | 23.94414 | 302 ft | 15 kts | 37° |
| 2026-05-07 20:28 | 37.92966 | 23.94489 | 302 ft | 14 kts | 37° |
| 2026-05-07 20:28 | 37.93053 | 23.94571 | 305 ft | 17 kts | 36° |
| 2026-05-07 20:29 | 37.93153 | 23.94665 | 302 ft | 19 kts | 37° |
| 2026-05-07 20:29 | 37.93264 | 23.94771 | 301 ft | 20 kts | 37° |
| 2026-05-07 20:29 | 37.93366 | 23.94867 | 300 ft | 11 kts | 37° |
| 2026-05-07 20:29 | 37.93426 | 23.94893 | 302 ft | 9 kts | 336° |
| 2026-05-07 20:30 | 37.93481 | 23.94850 | 301 ft | 10 kts | 14° |
| 2026-05-07 20:30 | 37.93545 | 23.94908 | 302 ft | 12 kts | 37° |
| 2026-05-07 20:30 | 37.93604 | 23.94964 | 301 ft | 4 kts | 37° |
| 2026-05-07 20:30 | 37.93631 | 23.94990 | 303 ft | 6 kts | 37° |
| 2026-05-07 20:31 | 37.93661 | 23.94978 | 300 ft | 6 kts | 312° |
| 2026-05-07 20:31 | 37.93689 | 23.94931 | 301 ft | 8 kts | 308° |
| 2026-05-07 20:31 | 37.93698 | 23.94917 | 302 ft | 0 kts | 307° |
| 2026-05-07 20:31 | 37.93698 | 23.94916 | 302 ft | 0 kts | 307° |